sensor_id;sensor_type;location;lat;lon;timestamp;temperature;humidity
7842;DHT22;3966;51.052;13.820;2023-02-18T00:00:59;9.70;99.90
7842;DHT22;3966;51.052;13.820;2023-02-18T00:03:27;9.70;99.90
7842;DHT22;3966;51.052;13.820;2023-02-18T00:05:53;9.70;99.90
7842;DHT22;3966;51.052;13.820;2023-02-18T00:08:19;9.70;99.90
7842;DHT22;3966;51.052;13.820;2023-02-18T00:10:45;9.70;99.90
7842;DHT22;3966;51.052;13.820;2023-02-18T00:13:11;9.70;99.90
7842;DHT22;3966;51.052;13.820;2023-02-18T00:15:37;9.70;99.90
7842;DHT22;3966;51.052;13.820;2023-02-18T00:18:04;9.80;99.90
7842;DHT22;3966;51.052;13.820;2023-02-18T00:20:30;9.80;99.90
7842;DHT22;3966;51.052;13.820;2023-02-18T00:22:58;9.80;99.90
7842;DHT22;3966;51.052;13.820;2023-02-18T00:25:24;9.80;99.90
7842;DHT22;3966;51.052;13.820;2023-02-18T00:27:49;9.70;99.90
7842;DHT22;3966;51.052;13.820;2023-02-18T00:30:15;9.60;99.90
7842;DHT22;3966;51.052;13.820;2023-02-18T00:32:41;9.60;99.90
7842;DHT22;3966;51.052;13.820;2023-02-18T00:35:07;9.60;99.90
7842;DHT22;3966;51.052;13.820;2023-02-18T00:37:33;9.50;99.90
7842;DHT22;3966;51.052;13.820;2023-02-18T00:39:59;9.50;99.90
7842;DHT22;3966;51.052;13.820;2023-02-18T00:42:24;9.50;99.90
7842;DHT22;3966;51.052;13.820;2023-02-18T00:44:50;9.40;99.90
7842;DHT22;3966;51.052;13.820;2023-02-18T00:47:15;9.40;99.90
7842;DHT22;3966;51.052;13.820;2023-02-18T00:49:41;9.40;99.90
7842;DHT22;3966;51.052;13.820;2023-02-18T00:52:07;9.40;99.90
7842;DHT22;3966;51.052;13.820;2023-02-18T00:54:32;9.40;99.90
7842;DHT22;3966;51.052;13.820;2023-02-18T00:56:58;9.40;99.90
7842;DHT22;3966;51.052;13.820;2023-02-18T00:59:24;9.40;99.90
7842;DHT22;3966;51.052;13.820;2023-02-18T01:01:49;9.50;99.90
7842;DHT22;3966;51.052;13.820;2023-02-18T01:04:15;9.40;99.90
7842;DHT22;3966;51.052;13.820;2023-02-18T01:09:14;9.40;99.90
7842;DHT22;3966;51.052;13.820;2023-02-18T01:11:39;9.40;99.90
7842;DHT22;3966;51.052;13.820;2023-02-18T01:14:05;9.40;99.90
7842;DHT22;3966;51.052;13.820;2023-02-18T01:16:31;9.40;99.90
7842;DHT22;3966;51.052;13.820;2023-02-18T01:18:56;9.40;99.90
7842;DHT22;3966;51.052;13.820;2023-02-18T01:21:22;9.50;99.90
7842;DHT22;3966;51.052;13.820;2023-02-18T01:23:47;9.50;99.90
7842;DHT22;3966;51.052;13.820;2023-02-18T01:26:13;9.40;99.90
7842;DHT22;3966;51.052;13.820;2023-02-18T01:28:39;9.40;99.90
7842;DHT22;3966;51.052;13.820;2023-02-18T01:31:09;9.40;99.90
7842;DHT22;3966;51.052;13.820;2023-02-18T01:33:35;9.40;99.90
7842;DHT22;3966;51.052;13.820;2023-02-18T01:36:01;9.40;99.90
7842;DHT22;3966;51.052;13.820;2023-02-18T01:38:27;9.30;99.90
7842;DHT22;3966;51.052;13.820;2023-02-18T01:40:53;9.30;99.90
7842;DHT22;3966;51.052;13.820;2023-02-18T01:43:19;9.30;99.90
7842;DHT22;3966;51.052;13.820;2023-02-18T01:45:58;9.20;99.90
7842;DHT22;3966;51.052;13.820;2023-02-18T01:48:55;9.20;99.90
7842;DHT22;3966;51.052;13.820;2023-02-18T01:51:26;9.10;99.90
7842;DHT22;3966;51.052;13.820;2023-02-18T01:54:01;9.10;99.90
7842;DHT22;3966;51.052;13.820;2023-02-18T01:57:00;9.00;99.90
7842;DHT22;3966;51.052;13.820;2023-02-18T01:59:31;9.00;99.90
7842;DHT22;3966;51.052;13.820;2023-02-18T02:01:57;9.00;99.90
7842;DHT22;3966;51.052;13.820;2023-02-18T02:04:23;8.90;99.90
7842;DHT22;3966;51.052;13.820;2023-02-18T02:06:49;9.00;99.90
7842;DHT22;3966;51.052;13.820;2023-02-18T02:09:17;8.90;99.90
7842;DHT22;3966;51.052;13.820;2023-02-18T02:17:15;8.90;99.90
7842;DHT22;3966;51.052;13.820;2023-02-18T02:20:02;8.90;99.90
7842;DHT22;3966;51.052;13.820;2023-02-18T02:28:06;8.90;99.90
7842;DHT22;3966;51.052;13.820;2023-02-18T02:40:40;8.80;99.90
7842;DHT22;3966;51.052;13.820;2023-02-18T02:45:47;8.70;99.90
7842;DHT22;3966;51.052;13.820;2023-02-18T02:48:15;8.70;99.90
7842;DHT22;3966;51.052;13.820;2023-02-18T02:50:50;8.70;99.90
7842;DHT22;3966;51.052;13.820;2023-02-18T02:53:27;8.70;99.90
7842;DHT22;3966;51.052;13.820;2023-02-18T02:55:54;8.70;99.90
7842;DHT22;3966;51.052;13.820;2023-02-18T02:58:21;8.80;99.90
7842;DHT22;3966;51.052;13.820;2023-02-18T03:07:10;8.80;99.90
7842;DHT22;3966;51.052;13.820;2023-02-18T03:12:43;8.90;99.90
7842;DHT22;3966;51.052;13.820;2023-02-18T03:17:56;8.90;99.90
7842;DHT22;3966;51.052;13.820;2023-02-18T03:20:45;8.90;99.90
7842;DHT22;3966;51.052;13.820;2023-02-18T03:23:16;9.00;99.90
7842;DHT22;3966;51.052;13.820;2023-02-18T03:25:44;9.00;99.90
7842;DHT22;3966;51.052;13.820;2023-02-18T03:28:19;9.00;99.90
7842;DHT22;3966;51.052;13.820;2023-02-18T03:33:17;9.00;99.90
7842;DHT22;3966;51.052;13.820;2023-02-18T03:35:46;9.00;99.90
7842;DHT22;3966;51.052;13.820;2023-02-18T03:38:17;9.00;99.90
7842;DHT22;3966;51.052;13.820;2023-02-18T03:40:43;9.00;99.90
7842;DHT22;3966;51.052;13.820;2023-02-18T03:43:09;9.00;99.90
7842;DHT22;3966;51.052;13.820;2023-02-18T03:45:35;9.00;99.90
7842;DHT22;3966;51.052;13.820;2023-02-18T03:48:00;8.90;99.90
7842;DHT22;3966;51.052;13.820;2023-02-18T03:50:26;8.90;99.90
7842;DHT22;3966;51.052;13.820;2023-02-18T03:52:52;8.90;99.90
7842;DHT22;3966;51.052;13.820;2023-02-18T03:55:17;8.90;99.90
7842;DHT22;3966;51.052;13.820;2023-02-18T03:57:43;8.90;99.90
7842;DHT22;3966;51.052;13.820;2023-02-18T04:00:09;8.90;99.90
7842;DHT22;3966;51.052;13.820;2023-02-18T04:02:36;8.80;99.90
7842;DHT22;3966;51.052;13.820;2023-02-18T04:05:02;8.80;99.90
7842;DHT22;3966;51.052;13.820;2023-02-18T04:07:27;8.80;99.90
7842;DHT22;3966;51.052;13.820;2023-02-18T04:09:53;8.80;99.90
7842;DHT22;3966;51.052;13.820;2023-02-18T04:12:18;8.80;99.90
7842;DHT22;3966;51.052;13.820;2023-02-18T04:14:44;8.80;99.90
7842;DHT22;3966;51.052;13.820;2023-02-18T04:17:10;8.80;99.90
7842;DHT22;3966;51.052;13.820;2023-02-18T04:19:35;8.80;99.90
7842;DHT22;3966;51.052;13.820;2023-02-18T04:22:02;8.80;99.90
7842;DHT22;3966;51.052;13.820;2023-02-18T04:24:27;8.70;99.90
7842;DHT22;3966;51.052;13.820;2023-02-18T04:26:53;8.80;99.90
7842;DHT22;3966;51.052;13.820;2023-02-18T04:29:19;8.80;99.90
7842;DHT22;3966;51.052;13.820;2023-02-18T04:31:44;8.80;99.90
7842;DHT22;3966;51.052;13.820;2023-02-18T04:34:10;8.80;99.90
7842;DHT22;3966;51.052;13.820;2023-02-18T04:36:35;8.80;99.90
7842;DHT22;3966;51.052;13.820;2023-02-18T04:39:01;8.80;99.90
7842;DHT22;3966;51.052;13.820;2023-02-18T04:41:27;8.80;99.90
7842;DHT22;3966;51.052;13.820;2023-02-18T04:43:53;8.80;99.90
7842;DHT22;3966;51.052;13.820;2023-02-18T04:46:18;8.80;99.90
7842;DHT22;3966;51.052;13.820;2023-02-18T04:48:44;8.80;99.90
7842;DHT22;3966;51.052;13.820;2023-02-18T04:51:10;8.80;99.90
7842;DHT22;3966;51.052;13.820;2023-02-18T04:53:35;8.80;99.90
7842;DHT22;3966;51.052;13.820;2023-02-18T04:56:01;8.70;99.90
7842;DHT22;3966;51.052;13.820;2023-02-18T04:58:27;8.70;99.90
7842;DHT22;3966;51.052;13.820;2023-02-18T05:00:52;8.70;99.90
7842;DHT22;3966;51.052;13.820;2023-02-18T05:03:18;8.70;99.90
7842;DHT22;3966;51.052;13.820;2023-02-18T05:05:44;8.70;99.90
7842;DHT22;3966;51.052;13.820;2023-02-18T05:08:10;8.80;99.90
7842;DHT22;3966;51.052;13.820;2023-02-18T05:10:37;8.80;99.90
7842;DHT22;3966;51.052;13.820;2023-02-18T05:13:02;8.80;99.90
7842;DHT22;3966;51.052;13.820;2023-02-18T05:15:28;8.80;99.90
7842;DHT22;3966;51.052;13.820;2023-02-18T05:17:54;8.80;99.90
7842;DHT22;3966;51.052;13.820;2023-02-18T05:20:19;8.80;99.90
7842;DHT22;3966;51.052;13.820;2023-02-18T05:22:45;8.80;99.90
7842;DHT22;3966;51.052;13.820;2023-02-18T05:25:11;8.80;99.90
7842;DHT22;3966;51.052;13.820;2023-02-18T05:27:36;8.80;99.90
7842;DHT22;3966;51.052;13.820;2023-02-18T05:30:03;8.80;99.90
7842;DHT22;3966;51.052;13.820;2023-02-18T05:32:28;8.80;99.90
7842;DHT22;3966;51.052;13.820;2023-02-18T05:34:54;8.80;99.90
7842;DHT22;3966;51.052;13.820;2023-02-18T05:37:20;8.80;99.90
7842;DHT22;3966;51.052;13.820;2023-02-18T05:39:46;8.80;99.90
7842;DHT22;3966;51.052;13.820;2023-02-18T05:42:11;8.80;99.90
7842;DHT22;3966;51.052;13.820;2023-02-18T05:44:37;8.80;99.90
7842;DHT22;3966;51.052;13.820;2023-02-18T05:47:06;8.80;99.90
7842;DHT22;3966;51.052;13.820;2023-02-18T05:49:33;8.90;99.90
7842;DHT22;3966;51.052;13.820;2023-02-18T05:51:59;8.90;99.90
7842;DHT22;3966;51.052;13.820;2023-02-18T05:54:26;8.80;99.90
7842;DHT22;3966;51.052;13.820;2023-02-18T05:56:52;8.80;99.90
7842;DHT22;3966;51.052;13.820;2023-02-18T05:59:18;8.80;99.90
7842;DHT22;3966;51.052;13.820;2023-02-18T06:01:45;8.90;99.90
7842;DHT22;3966;51.052;13.820;2023-02-18T06:04:10;8.90;99.90
7842;DHT22;3966;51.052;13.820;2023-02-18T06:06:36;8.90;99.90
7842;DHT22;3966;51.052;13.820;2023-02-18T06:09:02;8.90;99.90
7842;DHT22;3966;51.052;13.820;2023-02-18T06:11:28;8.90;99.90
7842;DHT22;3966;51.052;13.820;2023-02-18T06:13:54;8.90;99.90
7842;DHT22;3966;51.052;13.820;2023-02-18T06:16:19;8.90;99.90
7842;DHT22;3966;51.052;13.820;2023-02-18T06:18:45;8.80;99.90
7842;DHT22;3966;51.052;13.820;2023-02-18T06:21:11;8.80;99.90
7842;DHT22;3966;51.052;13.820;2023-02-18T06:23:36;8.80;99.90
7842;DHT22;3966;51.052;13.820;2023-02-18T06:26:02;8.70;99.90
7842;DHT22;3966;51.052;13.820;2023-02-18T06:28:27;8.70;99.90
7842;DHT22;3966;51.052;13.820;2023-02-18T06:30:53;8.70;99.90
7842;DHT22;3966;51.052;13.820;2023-02-18T06:33:19;8.60;99.90
7842;DHT22;3966;51.052;13.820;2023-02-18T06:36:00;8.60;99.90
7842;DHT22;3966;51.052;13.820;2023-02-18T06:38:26;8.50;99.90
7842;DHT22;3966;51.052;13.820;2023-02-18T06:40:52;8.60;99.90
7842;DHT22;3966;51.052;13.820;2023-02-18T06:43:19;8.50;99.90
7842;DHT22;3966;51.052;13.820;2023-02-18T06:45:45;8.40;99.90
7842;DHT22;3966;51.052;13.820;2023-02-18T06:48:11;8.40;99.90
7842;DHT22;3966;51.052;13.820;2023-02-18T06:50:37;8.40;99.90
7842;DHT22;3966;51.052;13.820;2023-02-18T06:53:03;8.40;99.90
7842;DHT22;3966;51.052;13.820;2023-02-18T06:55:28;8.30;99.90
7842;DHT22;3966;51.052;13.820;2023-02-18T06:57:54;8.30;99.90
7842;DHT22;3966;51.052;13.820;2023-02-18T07:00:20;8.30;99.90
7842;DHT22;3966;51.052;13.820;2023-02-18T07:02:47;8.30;99.90
7842;DHT22;3966;51.052;13.820;2023-02-18T07:05:12;8.30;99.90
7842;DHT22;3966;51.052;13.820;2023-02-18T07:07:38;8.30;99.90
7842;DHT22;3966;51.052;13.820;2023-02-18T07:10:04;8.30;99.90
7842;DHT22;3966;51.052;13.820;2023-02-18T07:12:32;8.30;99.90
7842;DHT22;3966;51.052;13.820;2023-02-18T07:14:57;8.30;99.90
7842;DHT22;3966;51.052;13.820;2023-02-18T07:17:23;8.30;99.90
7842;DHT22;3966;51.052;13.820;2023-02-18T07:19:49;8.30;99.90
7842;DHT22;3966;51.052;13.820;2023-02-18T07:22:14;8.30;99.90
7842;DHT22;3966;51.052;13.820;2023-02-18T07:24:40;8.20;99.90
7842;DHT22;3966;51.052;13.820;2023-02-18T07:27:05;8.20;99.90
7842;DHT22;3966;51.052;13.820;2023-02-18T07:29:31;8.20;99.90
7842;DHT22;3966;51.052;13.820;2023-02-18T07:31:57;8.20;99.90
7842;DHT22;3966;51.052;13.820;2023-02-18T07:34:22;8.30;99.90
7842;DHT22;3966;51.052;13.820;2023-02-18T07:36:48;8.30;99.90
7842;DHT22;3966;51.052;13.820;2023-02-18T07:39:14;8.40;99.90
7842;DHT22;3966;51.052;13.820;2023-02-18T07:41:40;8.40;99.90
7842;DHT22;3966;51.052;13.820;2023-02-18T07:44:06;8.50;99.90
7842;DHT22;3966;51.052;13.820;2023-02-18T07:46:31;8.50;99.90
7842;DHT22;3966;51.052;13.820;2023-02-18T07:48:57;8.50;99.90
7842;DHT22;3966;51.052;13.820;2023-02-18T07:51:23;8.50;99.90
7842;DHT22;3966;51.052;13.820;2023-02-18T07:53:49;8.50;99.90
7842;DHT22;3966;51.052;13.820;2023-02-18T07:56:14;8.60;99.90
7842;DHT22;3966;51.052;13.820;2023-02-18T07:58:40;8.50;99.90
7842;DHT22;3966;51.052;13.820;2023-02-18T08:01:10;8.50;99.90
7842;DHT22;3966;51.052;13.820;2023-02-18T08:03:36;8.50;99.90
7842;DHT22;3966;51.052;13.820;2023-02-18T08:06:03;8.50;99.90
7842;DHT22;3966;51.052;13.820;2023-02-18T08:08:30;8.50;99.90
7842;DHT22;3966;51.052;13.820;2023-02-18T08:10:59;8.50;99.90
7842;DHT22;3966;51.052;13.820;2023-02-18T08:13:27;8.50;99.90
7842;DHT22;3966;51.052;13.820;2023-02-18T08:15:54;8.50;99.90
7842;DHT22;3966;51.052;13.820;2023-02-18T08:18:22;8.50;99.90
7842;DHT22;3966;51.052;13.820;2023-02-18T08:20:49;8.60;99.90
7842;DHT22;3966;51.052;13.820;2023-02-18T08:23:18;8.60;99.90
7842;DHT22;3966;51.052;13.820;2023-02-18T08:25:49;8.60;99.90
7842;DHT22;3966;51.052;13.820;2023-02-18T08:28:16;8.60;99.90
7842;DHT22;3966;51.052;13.820;2023-02-18T08:30:50;8.90;99.90
7842;DHT22;3966;51.052;13.820;2023-02-18T08:33:16;9.90;99.90
7842;DHT22;3966;51.052;13.820;2023-02-18T08:35:44;10.20;99.90
7842;DHT22;3966;51.052;13.820;2023-02-18T08:38:10;10.40;99.90
7842;DHT22;3966;51.052;13.820;2023-02-18T08:40:36;10.50;99.90
7842;DHT22;3966;51.052;13.820;2023-02-18T08:43:02;10.50;99.90
7842;DHT22;3966;51.052;13.820;2023-02-18T08:45:27;10.40;99.90
7842;DHT22;3966;51.052;13.820;2023-02-18T08:47:53;10.40;99.90
7842;DHT22;3966;51.052;13.820;2023-02-18T08:50:19;10.50;99.90
7842;DHT22;3966;51.052;13.820;2023-02-18T08:52:46;10.50;99.90
7842;DHT22;3966;51.052;13.820;2023-02-18T08:55:12;10.50;99.90
7842;DHT22;3966;51.052;13.820;2023-02-18T08:57:38;10.40;99.90
7842;DHT22;3966;51.052;13.820;2023-02-18T09:00:04;10.70;99.90
7842;DHT22;3966;51.052;13.820;2023-02-18T09:02:30;10.70;99.90
7842;DHT22;3966;51.052;13.820;2023-02-18T09:04:56;10.70;99.90
7842;DHT22;3966;51.052;13.820;2023-02-18T09:07:22;10.80;99.90
7842;DHT22;3966;51.052;13.820;2023-02-18T09:09:47;10.70;99.90
7842;DHT22;3966;51.052;13.820;2023-02-18T09:12:13;10.50;99.90
7842;DHT22;3966;51.052;13.820;2023-02-18T09:14:38;10.60;99.90
7842;DHT22;3966;51.052;13.820;2023-02-18T09:17:04;10.70;99.90
7842;DHT22;3966;51.052;13.820;2023-02-18T09:19:30;10.80;99.90
7842;DHT22;3966;51.052;13.820;2023-02-18T09:21:55;10.60;99.90
7842;DHT22;3966;51.052;13.820;2023-02-18T09:24:22;10.70;99.90
7842;DHT22;3966;51.052;13.820;2023-02-18T09:26:49;10.50;99.90
7842;DHT22;3966;51.052;13.820;2023-02-18T09:29:15;10.60;99.90
7842;DHT22;3966;51.052;13.820;2023-02-18T09:31:41;10.40;99.90
7842;DHT22;3966;51.052;13.820;2023-02-18T09:34:07;9.90;99.90
7842;DHT22;3966;51.052;13.820;2023-02-18T09:36:32;10.00;99.90
7842;DHT22;3966;51.052;13.820;2023-02-18T09:38:58;10.30;99.90
7842;DHT22;3966;51.052;13.820;2023-02-18T09:41:46;10.60;99.90
7842;DHT22;3966;51.052;13.820;2023-02-18T09:44:26;10.50;99.90
7842;DHT22;3966;51.052;13.820;2023-02-18T09:46:59;10.70;99.90
7842;DHT22;3966;51.052;13.820;2023-02-18T09:49:32;10.90;99.90
7842;DHT22;3966;51.052;13.820;2023-02-18T09:52:11;10.80;99.90
7842;DHT22;3966;51.052;13.820;2023-02-18T09:54:37;10.50;99.90
7842;DHT22;3966;51.052;13.820;2023-02-18T09:57:03;10.70;99.90
7842;DHT22;3966;51.052;13.820;2023-02-18T09:59:30;10.70;99.90
7842;DHT22;3966;51.052;13.820;2023-02-18T10:01:56;10.50;99.90
7842;DHT22;3966;51.052;13.820;2023-02-18T10:04:42;10.60;99.90
7842;DHT22;3966;51.052;13.820;2023-02-18T10:07:23;10.70;99.90
7842;DHT22;3966;51.052;13.820;2023-02-18T10:09:51;10.70;99.90
7842;DHT22;3966;51.052;13.820;2023-02-18T10:12:20;10.70;99.90
7842;DHT22;3966;51.052;13.820;2023-02-18T10:14:58;10.80;99.90
7842;DHT22;3966;51.052;13.820;2023-02-18T10:17:27;10.90;99.90
7842;DHT22;3966;51.052;13.820;2023-02-18T10:19:55;11.00;99.90
7842;DHT22;3966;51.052;13.820;2023-02-18T10:22:22;10.90;99.90
7842;DHT22;3966;51.052;13.820;2023-02-18T10:24:57;10.90;99.90
7842;DHT22;3966;51.052;13.820;2023-02-18T10:27:34;10.90;99.90
7842;DHT22;3966;51.052;13.820;2023-02-18T10:30:26;11.00;99.90
7842;DHT22;3966;51.052;13.820;2023-02-18T10:32:59;11.00;99.90
7842;DHT22;3966;51.052;13.820;2023-02-18T10:35:30;11.00;99.90
7842;DHT22;3966;51.052;13.820;2023-02-18T10:38:19;11.00;99.90
7842;DHT22;3966;51.052;13.820;2023-02-18T10:43:37;11.00;99.90
7842;DHT22;3966;51.052;13.820;2023-02-18T10:51:50;11.00;99.90
7842;DHT22;3966;51.052;13.820;2023-02-18T10:54:17;11.10;99.90
7842;DHT22;3966;51.052;13.820;2023-02-18T10:56:57;11.10;99.90
7842;DHT22;3966;51.052;13.820;2023-02-18T10:59:25;11.10;99.90
7842;DHT22;3966;51.052;13.820;2023-02-18T11:02:15;11.20;99.90
7842;DHT22;3966;51.052;13.820;2023-02-18T11:04:43;11.20;99.90
7842;DHT22;3966;51.052;13.820;2023-02-18T11:07:20;11.20;99.90
7842;DHT22;3966;51.052;13.820;2023-02-18T11:09:49;11.30;99.90
7842;DHT22;3966;51.052;13.820;2023-02-18T11:12:23;11.40;99.90
7842;DHT22;3966;51.052;13.820;2023-02-18T11:17:43;11.50;99.90
7842;DHT22;3966;51.052;13.820;2023-02-18T11:20:31;11.60;99.90
7842;DHT22;3966;51.052;13.820;2023-02-18T11:25:37;11.50;99.90
7842;DHT22;3966;51.052;13.820;2023-02-18T11:31:16;11.60;99.90
7842;DHT22;3966;51.052;13.820;2023-02-18T11:33:48;11.50;99.90
7842;DHT22;3966;51.052;13.820;2023-02-18T11:36:33;11.60;99.90
7842;DHT22;3966;51.052;13.820;2023-02-18T11:39:04;11.70;99.90
7842;DHT22;3966;51.052;13.820;2023-02-18T11:41:45;11.80;99.90
7842;DHT22;3966;51.052;13.820;2023-02-18T11:44:28;11.90;99.90
7842;DHT22;3966;51.052;13.820;2023-02-18T11:49:23;12.20;99.90
7842;DHT22;3966;51.052;13.820;2023-02-18T11:51:49;12.20;99.90
7842;DHT22;3966;51.052;13.820;2023-02-18T11:54:29;12.20;99.90
7842;DHT22;3966;51.052;13.820;2023-02-18T11:56:56;12.30;99.90
7842;DHT22;3966;51.052;13.820;2023-02-18T11:59:23;12.30;99.90
7842;DHT22;3966;51.052;13.820;2023-02-18T12:01:59;12.40;99.90
7842;DHT22;3966;51.052;13.820;2023-02-18T12:04:30;12.40;99.90
7842;DHT22;3966;51.052;13.820;2023-02-18T12:10:03;12.40;99.90
7842;DHT22;3966;51.052;13.820;2023-02-18T12:12:42;12.40;99.90
7842;DHT22;3966;51.052;13.820;2023-02-18T12:15:15;12.40;99.90
7842;DHT22;3966;51.052;13.820;2023-02-18T12:17:59;12.20;99.90
7842;DHT22;3966;51.052;13.820;2023-02-18T12:26:21;12.10;99.90
7842;DHT22;3966;51.052;13.820;2023-02-18T12:34:40;12.00;99.90
7842;DHT22;3966;51.052;13.820;2023-02-18T12:45:59;12.00;99.90
7842;DHT22;3966;51.052;13.820;2023-02-18T13:10:51;11.90;99.90
7842;DHT22;3966;51.052;13.820;2023-02-18T13:13:20;11.90;99.90
7842;DHT22;3966;51.052;13.820;2023-02-18T13:18:26;11.70;99.90
7842;DHT22;3966;51.052;13.820;2023-02-18T13:21:22;11.60;99.90
7842;DHT22;3966;51.052;13.820;2023-02-18T13:23:55;11.50;99.90
7842;DHT22;3966;51.052;13.820;2023-02-18T13:26:23;11.60;99.90
7842;DHT22;3966;51.052;13.820;2023-02-18T13:29:13;11.60;99.90
7842;DHT22;3966;51.052;13.820;2023-02-18T13:37:35;11.70;99.90
7842;DHT22;3966;51.052;13.820;2023-02-18T13:40:02;11.70;99.90
7842;DHT22;3966;51.052;13.820;2023-02-18T13:45:31;11.60;99.90
7842;DHT22;3966;51.052;13.820;2023-02-18T13:47:58;11.50;99.90
7842;DHT22;3966;51.052;13.820;2023-02-18T13:50:37;11.40;99.90
7842;DHT22;3966;51.052;13.820;2023-02-18T13:55:51;11.20;99.90
7842;DHT22;3966;51.052;13.820;2023-02-18T13:58:23;11.20;99.90
7842;DHT22;3966;51.052;13.820;2023-02-18T14:00:54;11.30;99.90
7842;DHT22;3966;51.052;13.820;2023-02-18T14:06:03;11.20;99.90
7842;DHT22;3966;51.052;13.820;2023-02-18T14:08:40;11.20;99.90
7842;DHT22;3966;51.052;13.820;2023-02-18T14:14:12;11.20;99.90
7842;DHT22;3966;51.052;13.820;2023-02-18T14:17:27;11.20;99.90
7842;DHT22;3966;51.052;13.820;2023-02-18T14:22:43;11.20;99.90
7842;DHT22;3966;51.052;13.820;2023-02-18T14:25:22;11.30;99.90
7842;DHT22;3966;51.052;13.820;2023-02-18T14:27:52;11.20;99.90
7842;DHT22;3966;51.052;13.820;2023-02-18T14:32:49;11.20;99.90
7842;DHT22;3966;51.052;13.820;2023-02-18T14:35:34;11.20;99.90
7842;DHT22;3966;51.052;13.820;2023-02-18T14:38:13;11.20;99.90
7842;DHT22;3966;51.052;13.820;2023-02-18T14:40:53;11.20;99.90
7842;DHT22;3966;51.052;13.820;2023-02-18T14:47:07;11.20;99.90
7842;DHT22;3966;51.052;13.820;2023-02-18T14:49:45;11.10;99.90
7842;DHT22;3966;51.052;13.820;2023-02-18T14:52:32;11.20;99.90
7842;DHT22;3966;51.052;13.820;2023-02-18T14:55:04;11.20;99.90
7842;DHT22;3966;51.052;13.820;2023-02-18T14:57:45;11.20;99.90
7842;DHT22;3966;51.052;13.820;2023-02-18T15:00:21;11.30;99.90
7842;DHT22;3966;51.052;13.820;2023-02-18T15:02:51;11.30;99.90
7842;DHT22;3966;51.052;13.820;2023-02-18T15:05:23;11.20;99.90
7842;DHT22;3966;51.052;13.820;2023-02-18T15:08:04;11.20;99.90
7842;DHT22;3966;51.052;13.820;2023-02-18T15:10:40;11.00;99.90
7842;DHT22;3966;51.052;13.820;2023-02-18T15:13:27;10.90;99.90
7842;DHT22;3966;51.052;13.820;2023-02-18T15:15:57;10.70;99.90
7842;DHT22;3966;51.052;13.820;2023-02-18T15:18:33;10.60;99.90
7842;DHT22;3966;51.052;13.820;2023-02-18T15:21:23;10.50;99.90
7842;DHT22;3966;51.052;13.820;2023-02-18T15:23:46;10.50;99.90
7842;DHT22;3966;51.052;13.820;2023-02-18T15:26:14;10.40;99.90
7842;DHT22;3966;51.052;13.820;2023-02-18T15:28:57;10.40;99.90
7842;DHT22;3966;51.052;13.820;2023-02-18T15:31:36;10.40;99.90
7842;DHT22;3966;51.052;13.820;2023-02-18T15:36:53;10.40;99.90
7842;DHT22;3966;51.052;13.820;2023-02-18T15:39:19;10.40;99.90
7842;DHT22;3966;51.052;13.820;2023-02-18T15:41:45;10.50;99.90
7842;DHT22;3966;51.052;13.820;2023-02-18T15:44:19;10.60;99.90
7842;DHT22;3966;51.052;13.820;2023-02-18T15:46:46;10.70;99.90
7842;DHT22;3966;51.052;13.820;2023-02-18T15:49:14;11.00;99.90
7842;DHT22;3966;51.052;13.820;2023-02-18T15:51:41;11.20;99.90
7842;DHT22;3966;51.052;13.820;2023-02-18T15:54:16;11.20;99.90
7842;DHT22;3966;51.052;13.820;2023-02-18T15:56:45;11.30;99.90
7842;DHT22;3966;51.052;13.820;2023-02-18T16:01:54;11.40;99.90
7842;DHT22;3966;51.052;13.820;2023-02-18T16:04:23;11.30;99.90
7842;DHT22;3966;51.052;13.820;2023-02-18T16:06:52;11.30;99.90
7842;DHT22;3966;51.052;13.820;2023-02-18T16:09:33;11.30;99.90
7842;DHT22;3966;51.052;13.820;2023-02-18T16:12:02;11.40;99.90
7842;DHT22;3966;51.052;13.820;2023-02-18T16:14:48;11.30;99.90
7842;DHT22;3966;51.052;13.820;2023-02-18T16:17:14;11.30;99.90
7842;DHT22;3966;51.052;13.820;2023-02-18T16:20:00;11.40;99.90
7842;DHT22;3966;51.052;13.820;2023-02-18T16:25:15;11.40;99.90
7842;DHT22;3966;51.052;13.820;2023-02-18T16:27:48;11.30;99.90
7842;DHT22;3966;51.052;13.820;2023-02-18T16:30:21;11.30;99.90
7842;DHT22;3966;51.052;13.820;2023-02-18T16:32:47;11.30;99.90
7842;DHT22;3966;51.052;13.820;2023-02-18T16:35:13;11.20;99.90
7842;DHT22;3966;51.052;13.820;2023-02-18T16:37:40;11.30;99.90
7842;DHT22;3966;51.052;13.820;2023-02-18T16:42:41;11.30;99.90
7842;DHT22;3966;51.052;13.820;2023-02-18T16:45:11;11.30;99.90
7842;DHT22;3966;51.052;13.820;2023-02-18T16:47:38;11.30;99.90
7842;DHT22;3966;51.052;13.820;2023-02-18T16:50:04;11.30;99.90
7842;DHT22;3966;51.052;13.820;2023-02-18T16:52:30;11.30;99.90
7842;DHT22;3966;51.052;13.820;2023-02-18T16:54:56;11.30;99.90
7842;DHT22;3966;51.052;13.820;2023-02-18T16:57:22;11.40;99.90
7842;DHT22;3966;51.052;13.820;2023-02-18T16:59:48;11.40;99.90
7842;DHT22;3966;51.052;13.820;2023-02-18T17:02:19;11.40;99.90
7842;DHT22;3966;51.052;13.820;2023-02-18T17:04:46;11.30;99.90
7842;DHT22;3966;51.052;13.820;2023-02-18T17:07:12;11.40;99.90
7842;DHT22;3966;51.052;13.820;2023-02-18T17:09:38;11.50;99.90
7842;DHT22;3966;51.052;13.820;2023-02-18T17:12:04;11.40;99.90
7842;DHT22;3966;51.052;13.820;2023-02-18T17:14:30;11.40;99.90
7842;DHT22;3966;51.052;13.820;2023-02-18T17:16:56;11.40;99.90
7842;DHT22;3966;51.052;13.820;2023-02-18T17:19:22;11.40;99.90
7842;DHT22;3966;51.052;13.820;2023-02-18T17:21:48;11.30;99.90
7842;DHT22;3966;51.052;13.820;2023-02-18T17:24:15;11.30;99.90
7842;DHT22;3966;51.052;13.820;2023-02-18T17:26:42;11.20;99.90
7842;DHT22;3966;51.052;13.820;2023-02-18T17:29:08;11.20;99.90
7842;DHT22;3966;51.052;13.820;2023-02-18T17:31:39;11.20;99.90
7842;DHT22;3966;51.052;13.820;2023-02-18T17:34:07;11.10;99.90
7842;DHT22;3966;51.052;13.820;2023-02-18T17:36:33;11.10;99.90
7842;DHT22;3966;51.052;13.820;2023-02-18T17:38:59;11.00;99.90
7842;DHT22;3966;51.052;13.820;2023-02-18T17:41:25;11.00;99.90
7842;DHT22;3966;51.052;13.820;2023-02-18T17:43:51;11.00;99.90
7842;DHT22;3966;51.052;13.820;2023-02-18T17:46:18;10.90;99.90
7842;DHT22;3966;51.052;13.820;2023-02-18T17:48:45;10.80;99.90
7842;DHT22;3966;51.052;13.820;2023-02-18T17:51:26;10.80;99.90
7842;DHT22;3966;51.052;13.820;2023-02-18T17:53:52;10.80;99.90
7842;DHT22;3966;51.052;13.820;2023-02-18T17:56:18;10.80;99.90
7842;DHT22;3966;51.052;13.820;2023-02-18T17:58:44;10.80;99.90
7842;DHT22;3966;51.052;13.820;2023-02-18T18:01:10;10.80;99.90
7842;DHT22;3966;51.052;13.820;2023-02-18T18:03:36;10.80;99.90
7842;DHT22;3966;51.052;13.820;2023-02-18T18:06:02;10.80;99.90
7842;DHT22;3966;51.052;13.820;2023-02-18T18:08:29;10.70;99.90
7842;DHT22;3966;51.052;13.820;2023-02-18T18:10:58;10.70;99.90
7842;DHT22;3966;51.052;13.820;2023-02-18T18:13:29;10.80;99.90
7842;DHT22;3966;51.052;13.820;2023-02-18T18:15:57;10.80;99.90
7842;DHT22;3966;51.052;13.820;2023-02-18T18:18:23;10.90;99.90
7842;DHT22;3966;51.052;13.820;2023-02-18T18:20:53;10.80;99.90
7842;DHT22;3966;51.052;13.820;2023-02-18T18:23:20;10.80;99.90
7842;DHT22;3966;51.052;13.820;2023-02-18T18:25:49;10.90;99.90
7842;DHT22;3966;51.052;13.820;2023-02-18T18:28:15;10.80;99.90
7842;DHT22;3966;51.052;13.820;2023-02-18T18:30:43;10.80;99.90
7842;DHT22;3966;51.052;13.820;2023-02-18T18:33:25;10.70;99.90